Time;durP1;ratioP1;P1;durP2;ratioP2;P2;SDS_P1;SDS_P2;PMS_P1;PMS_P2;Temp;Humidity;BMP_temperature;BMP_pressure;BME280_temperature;BME280_humidity;BME280_pressure;Samples;Min_cycle;Max_cycle;Signal;HPM_P1;HPM_P2
2023/02/07 00:08:59;;;;;;;1999.90;999.90;;;1.00;99.90;;;;;;6751857;88;20340;-77
2023/02/07 00:19:03;;;;;;;1999.90;999.90;;;0.80;99.90;;;;;;6754208;88;20185;-77
2023/02/07 00:29:03;;;;;;;1999.90;999.90;;;0.60;99.90;;;;;;6757416;88;20192;-74
2023/02/07 00:39:12;;;;;;;1999.90;999.90;;;0.50;99.90;;;;;;6753068;88;20206;-76
2023/02/07 00:49:13;;;;;;;1999.90;999.90;;;0.70;99.90;;;;;;6754915;88;20180;-77
2023/02/07 00:59:16;;;;;;;1999.90;999.90;;;0.70;99.90;;;;;;6727721;88;20193;-75
2023/02/07 01:09:17;;;;;;;1999.90;999.90;;;0.60;99.90;;;;;;6737831;88;20181;-75
2023/02/07 01:19:18;;;;;;;1999.90;999.90;;;0.40;99.90;;;;;;6729642;88;20603;-76
2023/02/07 01:29:19;;;;;;;1999.90;999.90;;;0.30;99.90;;;;;;6731162;88;20189;-76
2023/02/07 01:39:19;;;;;;;1999.90;999.90;;;0.00;99.90;;;;;;6738642;88;20618;-75
2023/02/07 01:49:24;;;;;;;1999.90;999.90;;;0.10;99.90;;;;;;6738897;88;20180;-76
2023/02/07 01:59:26;;;;;;;1999.90;999.90;;;-0.20;99.90;;;;;;6721782;88;20218;-77
2023/02/07 02:09:28;;;;;;;1999.90;999.90;;;-0.20;99.90;;;;;;6720111;88;20174;-76
2023/02/07 02:19:55;;;;;;;1999.90;999.90;;;-0.10;99.90;;;;;;6720348;88;20215;-75
2023/02/07 02:30:29;;;;;;;1999.90;999.90;;;0.00;99.90;;;;;;6717947;88;20675;-76
2023/02/07 02:40:42;;;;;;;1999.90;999.90;;;0.10;99.90;;;;;;6717936;88;21203;-76
2023/02/07 02:50:48;;;;;;;1999.90;999.90;;;0.10;99.90;;;;;;6718061;88;20570;-76
2023/02/07 03:01:05;;;;;;;1999.90;999.90;;;-0.20;99.90;;;;;;6717577;88;20211;-76
2023/02/07 03:11:16;;;;;;;1999.90;999.90;;;-0.40;99.90;;;;;;6720584;88;20177;-75
2023/02/07 03:21:28;;;;;;;1999.90;999.90;;;-0.40;99.90;;;;;;6717068;88;20406;-75
2023/02/07 03:31:30;;;;;;;1999.90;999.90;;;-0.60;99.90;;;;;;6716000;88;20270;-76
2023/02/07 03:41:40;;;;;;;1999.90;999.90;;;-0.50;99.90;;;;;;6716222;88;20203;-75
2023/02/07 03:51:40;;;;;;;1999.90;999.90;;;-0.70;99.90;;;;;;6716488;88;20214;-75
2023/02/07 04:01:41;;;;;;;1999.90;999.90;;;-0.80;99.90;;;;;;6734913;88;20198;-75
2023/02/07 04:11:42;;;;;;;1999.90;999.90;;;-0.80;99.90;;;;;;6735806;88;20189;-74
2023/02/07 04:21:42;;;;;;;1999.90;999.90;;;-0.90;99.90;;;;;;6734315;88;20181;-75
2023/02/07 04:31:43;;;;;;;1999.90;999.90;;;-1.00;99.90;;;;;;6735446;88;20698;-76
2023/02/07 04:41:43;;;;;;;1999.90;999.90;;;-1.00;99.90;;;;;;6740141;88;20189;-75
2023/02/07 04:51:44;;;;;;;1999.90;999.90;;;-1.00;99.90;;;;;;6737167;88;20197;-75
2023/02/07 05:01:44;;;;;;;1999.90;999.90;;;-1.10;99.90;;;;;;6733088;88;20522;-77
2023/02/07 05:11:45;;;;;;;1999.90;999.90;;;-1.20;99.90;;;;;;6734799;88;20609;-76
2023/02/07 05:21:45;;;;;;;1999.90;999.90;;;-1.20;99.90;;;;;;6733177;88;20684;-76
2023/02/07 05:42:05;;;;;;;1999.90;999.90;;;-1.30;99.90;;;;;;6723129;88;20235;-77
2023/02/07 05:52:05;;;;;;;1999.90;999.90;;;-1.40;99.90;;;;;;6724664;88;20336;-76
2023/02/07 06:02:06;;;;;;;1999.90;999.90;;;-1.50;99.90;;;;;;6720216;88;20308;-77
2023/02/07 06:12:06;;;;;;;1999.90;999.90;;;-1.50;99.90;;;;;;6729043;88;20283;-78
2023/02/07 06:22:07;;;;;;;1999.90;999.90;;;-1.50;99.90;;;;;;6728228;88;20186;-77
2023/02/07 06:32:07;;;;;;;1999.90;999.90;;;-1.50;99.90;;;;;;6724336;88;20352;-77
2023/02/07 06:42:08;;;;;;;1999.90;999.90;;;-1.60;99.90;;;;;;6724162;88;20199;-77
2023/02/07 06:52:09;;;;;;;1999.90;999.90;;;-1.70;99.90;;;;;;6719520;88;20193;-76
2023/02/07 07:02:11;;;;;;;1999.90;999.90;;;-1.70;99.90;;;;;;6716659;88;20690;-76
2023/02/07 07:12:12;;;;;;;1999.90;999.90;;;-1.80;99.90;;;;;;6722749;88;20209;-77
2023/02/07 07:22:12;;;;;;;1999.90;999.90;;;-1.70;99.90;;;;;;6719737;88;20335;-77
2023/02/07 07:32:13;;;;;;;1999.90;999.90;;;-1.60;99.90;;;;;;6716606;88;20221;-77
2023/02/07 07:42:14;;;;;;;1999.90;999.90;;;-1.40;99.90;;;;;;6721576;88;20214;-77
2023/02/07 07:52:15;;;;;;;1999.90;999.90;;;-1.10;99.90;;;;;;6722613;88;20283;-78
2023/02/07 08:02:15;;;;;;;1999.90;999.90;;;-0.90;99.90;;;;;;6723077;88;20186;-78
2023/02/07 08:12:16;;;;;;;1999.90;999.90;;;-0.60;99.90;;;;;;6722273;88;20255;-79
2023/02/07 08:22:16;;;;;;;1999.90;999.90;;;-0.50;99.90;;;;;;6723128;88;20400;-78
2023/02/07 08:32:17;;;;;;;1999.90;999.90;;;0.10;99.90;;;;;;6728788;88;20208;-79
2023/02/07 08:42:21;;;;;;;1999.90;999.90;;;0.70;99.90;;;;;;6723565;88;20668;-77
2023/02/07 08:52:22;;;;;;;1999.90;999.90;;;1.40;99.90;;;;;;6721221;88;20514;-78
2023/02/07 09:02:23;;;;;;;1999.90;999.90;;;1.60;99.90;;;;;;6721839;88;20782;-78
2023/02/07 09:12:23;;;;;;;1999.90;999.90;;;2.20;99.90;;;;;;6723524;88;20659;-78
2023/02/07 09:22:24;;;;;;;1999.90;999.90;;;2.40;99.90;;;;;;6725688;88;20216;-78
2023/02/07 09:32:25;;;;;;;1999.90;999.90;;;2.70;99.90;;;;;;6722661;88;20189;-78
2023/02/07 09:43:12;;;;;;;1999.90;999.90;;;3.10;99.90;;;;;;6723156;88;20639;-79
2023/02/07 09:53:17;;;;;;;1999.90;999.90;;;3.30;99.90;;;;;;6722730;88;20177;-78
2023/02/07 10:03:24;;;;;;;1999.90;999.90;;;3.80;99.90;;;;;;6726967;88;20212;-78
2023/02/07 10:13:55;;;;;;;1999.90;999.90;;;4.20;99.90;;;;;;6729125;88;20338;-77
2023/02/07 10:24:14;;;;;;;1999.90;999.90;;;3.60;99.90;;;;;;6721118;88;20606;-77
2023/02/07 10:34:24;;;;;;;1999.90;999.90;;;4.40;99.90;;;;;;6717113;88;20330;-80
2023/02/07 10:44:27;;;;;;;1999.90;999.90;;;4.60;99.90;;;;;;6735005;88;20332;-77
2023/02/07 10:54:28;;;;;;;1999.90;999.90;;;4.60;99.90;;;;;;6723977;88;20217;-76
2023/02/07 11:04:41;;;;;;;1999.90;999.90;;;4.60;99.90;;;;;;6721910;88;20333;-76
2023/02/07 11:15:03;;;;;;;1999.90;999.90;;;5.30;99.90;;;;;;6717503;88;20390;-76
2023/02/07 11:25:05;;;;;;;1999.90;999.90;;;5.80;99.90;;;;;;6716320;88;20222;-77
2023/02/07 11:35:19;;;;;;;1999.90;999.90;;;6.00;99.90;;;;;;6726709;78;20235;-78
2023/02/07 11:45:21;;;;;;;1999.90;999.90;;;6.20;99.90;;;;;;6713364;88;20267;-76
2023/02/07 11:55:34;;;;;;;1999.90;999.90;;;7.00;99.90;;;;;;6720192;88;20190;-76
2023/02/07 12:05:39;;;;;;;1999.90;999.90;;;7.30;99.90;;;;;;6716468;88;20226;-76
2023/02/07 12:15:59;;;;;;;1999.90;999.90;;;7.60;99.90;;;;;;6715024;88;20256;-78
2023/02/07 12:26:14;;;;;;;1999.90;999.90;;;8.80;99.90;;;;;;6714237;88;20308;-77
2023/02/07 12:36:25;;;;;;;1999.90;999.90;;;10.10;98.30;;;;;;6715232;88;20568;-77
2023/02/07 12:46:52;;;;;;;1999.90;999.90;;;11.60;97.10;;;;;;6717227;88;20240;-77
2023/02/07 12:57:01;;;;;;;1999.90;999.90;;;10.10;97.30;;;;;;6715201;88;20242;-77
2023/02/07 13:07:32;;;;;;;1999.90;999.90;;;13.60;95.30;;;;;;6714059;88;20302;-77
2023/02/07 13:17:44;;;;;;;1999.90;999.90;;;16.50;90.90;;;;;;6717196;88;20220;-77
2023/02/07 13:27:47;;;;;;;1999.90;999.90;;;17.30;90.20;;;;;;6715931;88;20304;-77
2023/02/07 13:38:01;;;;;;;1999.90;999.90;;;17.50;84.50;;;;;;6713328;88;20417;-77
2023/02/07 13:48:01;;;;;;;1999.90;999.90;;;17.30;85.20;;;;;;6713936;88;20707;-78
2023/02/07 14:08:23;;;;;;;1999.90;999.90;;;17.50;82.10;;;;;;6703383;88;21275;-77
2023/02/07 14:18:37;;;;;;;1999.90;999.90;;;16.50;84.80;;;;;;6708202;88;20718;-77
2023/02/07 14:28:38;;;;;;;1999.90;999.90;;;16.00;83.30;;;;;;6708786;88;20205;-77
2023/02/07 14:39:00;;;;;;;1999.90;999.90;;;15.50;83.30;;;;;;6713901;88;20252;-77
2023/02/07 14:49:20;;;;;;;1999.90;999.90;;;15.00;85.00;;;;;;6709414;88;20270;-77
2023/02/07 14:59:34;;;;;;;1999.90;999.90;;;14.50;84.60;;;;;;6712565;88;20438;-75
2023/02/07 15:09:34;;;;;;;1999.90;999.90;;;12.10;86.90;;;;;;6715029;88;20643;-76
2023/02/07 15:19:39;;;;;;;1999.90;999.90;;;10.90;89.70;;;;;;6711832;88;20182;-75
2023/02/07 15:29:40;;;;;;;1999.90;999.90;;;9.80;89.70;;;;;;6715187;88;20232;-76
2023/02/07 15:39:40;;;;;;;1999.90;999.90;;;9.30;89.90;;;;;;6715605;88;20656;-75
2023/02/07 15:49:41;;;;;;;1999.90;999.90;;;8.70;90.60;;;;;;6712119;88;20593;-76
2023/02/07 15:59:42;;;;;;;1999.90;999.90;;;8.00;89.60;;;;;;6716428;88;20185;-76
2023/02/07 16:09:44;;;;;;;1999.90;999.90;;;7.90;89.40;;;;;;6716029;88;20425;-76
2023/02/07 16:19:45;;;;;;;1999.90;999.90;;;7.30;89.60;;;;;;6712436;88;20491;-77
2023/02/07 16:29:46;;;;;;;1999.90;999.90;;;6.80;89.70;;;;;;6714823;88;20215;-76
2023/02/07 16:39:46;;;;;;;1999.90;999.90;;;6.40;90.20;;;;;;6708571;88;20469;-76
2023/02/07 16:49:47;;;;;;;1999.90;999.90;;;5.90;90.80;;;;;;6715914;88;20211;-75
2023/02/07 16:59:48;;;;;;;1999.90;999.90;;;5.30;91.90;;;;;;6712810;88;20208;-76
2023/02/07 17:09:49;;;;;;;1999.90;999.90;;;5.10;91.80;;;;;;6718918;88;20663;-77
2023/02/07 17:19:50;;;;;;;1999.90;999.90;;;4.80;92.50;;;;;;6713837;88;20375;-77
2023/02/07 17:29:51;;;;;;;1999.90;999.90;;;4.60;92.20;;;;;;6723542;78;21052;-77
2023/02/07 17:39:51;;;;;;;1999.90;999.90;;;4.40;92.30;;;;;;6717263;88;20281;-78
2023/02/07 17:49:52;;;;;;;1999.90;999.90;;;4.30;92.70;;;;;;6716264;88;20244;-76
2023/02/07 17:59:52;;;;;;;1999.90;999.90;;;3.90;93.40;;;;;;6717216;88;20710;-77
2023/02/07 18:09:53;;;;;;;1999.90;999.90;;;3.50;94.90;;;;;;6718193;88;20267;-78
2023/02/07 18:19:53;;;;;;;1999.90;999.90;;;3.20;97.00;;;;;;6715118;88;20945;-78
2023/02/07 18:29:54;;;;;;;1999.90;999.90;;;3.30;95.40;;;;;;6714523;88;20605;-77
2023/02/07 18:39:55;;;;;;;1999.90;999.90;;;3.10;95.90;;;;;;6719142;88;20227;-76
2023/02/07 18:49:55;;;;;;;1999.90;999.90;;;2.70;97.70;;;;;;6717272;88;20203;-77
2023/02/07 18:59:56;;;;;;;1999.90;999.90;;;2.40;99.10;;;;;;6719246;88;20220;-77
2023/02/07 19:09:56;;;;;;;1999.90;999.90;;;2.20;99.60;;;;;;6719656;88;20252;-78
2023/02/07 19:19:57;;;;;;;1999.90;999.90;;;2.20;99.90;;;;;;6718181;88;20226;-78
2023/02/07 19:29:57;;;;;;;1999.90;999.90;;;1.80;99.90;;;;;;6713492;88;20213;-77
2023/02/07 19:39:58;;;;;;;1999.90;999.90;;;1.70;99.90;;;;;;6716153;88;20180;-76
2023/02/07 19:49:58;;;;;;;1999.90;999.90;;;1.50;99.90;;;;;;6719300;88;20199;-76
2023/02/07 19:59:59;;;;;;;1999.90;999.90;;;1.20;99.90;;;;;;6711654;88;20223;-75
2023/02/07 20:10:00;;;;;;;1999.90;999.90;;;0.90;99.90;;;;;;6720632;88;20186;-77
2023/02/07 20:20:01;;;;;;;1999.90;999.90;;;0.80;99.90;;;;;;6720424;88;20185;-77
2023/02/07 20:30:01;;;;;;;1999.90;999.90;;;0.80;99.90;;;;;;6712325;88;20194;-77
2023/02/07 20:40:02;;;;;;;1999.90;999.90;;;0.80;99.90;;;;;;6713809;88;20348;-77
2023/02/07 20:50:05;;;;;;;1999.90;999.90;;;0.40;99.90;;;;;;6720257;88;20353;-77
2023/02/07 21:00:07;;;;;;;1999.90;999.90;;;0.40;99.90;;;;;;6722385;88;20507;-78
2023/02/07 21:10:08;;;;;;;1999.90;999.90;;;0.20;99.90;;;;;;6718718;88;20671;-77
2023/02/07 21:20:08;;;;;;;1999.90;999.90;;;0.10;99.90;;;;;;6720773;88;20305;-77
2023/02/07 21:30:10;;;;;;;1999.90;999.90;;;0.00;99.90;;;;;;6717872;88;20512;-78
2023/02/07 21:40:11;;;;;;;1999.90;999.90;;;-0.10;99.90;;;;;;6712125;88;20623;-77
2023/02/07 21:50:11;;;;;;;1999.90;999.90;;;-0.10;99.90;;;;;;6717693;88;20214;-77
2023/02/07 22:00:12;;;;;;;1999.90;999.90;;;-0.30;99.90;;;;;;6718539;88;20213;-77
2023/02/07 22:10:13;;;;;;;1999.90;999.90;;;-0.40;99.90;;;;;;6719762;88;20789;-77
2023/02/07 22:20:14;;;;;;;1999.90;999.90;;;-0.50;99.90;;;;;;6720358;88;20210;-76
2023/02/07 22:30:15;;;;;;;1999.90;999.90;;;-0.60;99.90;;;;;;6718021;88;20207;-77
2023/02/07 22:40:15;;;;;;;1999.90;999.90;;;-0.50;99.90;;;;;;6719181;88;20611;-75
2023/02/07 22:50:16;;;;;;;1999.90;999.90;;;-0.70;99.90;;;;;;6714433;88;20197;-75
2023/02/07 23:00:18;;;;;;;1999.90;999.90;;;-0.60;99.90;;;;;;6719200;88;20546;-75
2023/02/07 23:10:19;;;;;;;1999.90;999.90;;;-0.70;99.90;;;;;;6717112;88;20685;-75
2023/02/07 23:20:19;;;;;;;1999.90;999.90;;;-0.80;99.90;;;;;;6720563;88;20297;-76
2023/02/07 23:30:20;;;;;;;1999.90;999.90;;;-1.00;99.90;;;;;;6718568;88;20701;-75
2023/02/07 23:40:20;;;;;;;1999.90;999.90;;;-0.90;99.90;;;;;;6724048;88;20195;-76
2023/02/07 23:50:23;;;;;;;1999.90;999.90;;;-0.80;99.90;;;;;;6719359;88;20231;-76
